Time;durP1;ratioP1;P1;durP2;ratioP2;P2;SDS_P1;SDS_P2;PMS_P1;PMS_P2;Temp;Humidity;BMP_temperature;BMP_pressure;BME280_temperature;BME280_humidity;BME280_pressure;Samples;Min_cycle;Max_cycle;Signal;HPM_P1;HPM_P2
2024/01/12 00:00:20;;;;;;;63.17;26.25;;;;;;;;;;5017674;28;20404;-55
2024/01/12 00:02:46;;;;;;;57.58;24.70;;;;;;;;;;5023086;28;20036;-55
2024/01/12 00:05:12;;;;;;;63.60;28.17;;;;;;;;;;5016569;28;20021;-57
2024/01/12 00:07:38;;;;;;;60.72;26.48;;;;;;;;;;5021176;28;20030;-57
2024/01/12 00:10:04;;;;;;;61.05;27.52;;;;;;;;;;5016926;28;20038;-54
2024/01/12 00:12:30;;;;;;;66.22;27.13;;;;;;;;;;5020564;28;20030;-56
2024/01/12 00:14:57;;;;;;;60.45;25.98;;;;;;;;;;5016440;28;20029;-55
2024/01/12 00:17:23;;;;;;;62.65;25.77;;;;;;;;;;5012005;28;20025;-54
2024/01/12 00:19:49;;;;;;;67.47;28.27;;;;;;;;;;5010255;28;20030;-55
2024/01/12 00:22:15;;;;;;;66.38;26.92;;;;;;;;;;5021232;28;20026;-55
2024/01/12 00:24:41;;;;;;;71.80;27.52;;;;;;;;;;5020010;28;20025;-54
2024/01/12 00:27:07;;;;;;;67.70;27.02;;;;;;;;;;5021294;28;20116;-55
2024/01/12 00:29:33;;;;;;;70.10;28.30;;;;;;;;;;5018273;28;20021;-56
2024/01/12 00:31:59;;;;;;;72.95;29.40;;;;;;;;;;5020117;28;20136;-53
2024/01/12 00:34:25;;;;;;;66.53;27.83;;;;;;;;;;5011108;28;20036;-54
2024/01/12 00:36:53;;;;;;;80.25;28.88;;;;;;;;;;5017565;28;20080;-53
2024/01/12 00:39:19;;;;;;;72.72;27.67;;;;;;;;;;5017407;28;20096;-54
2024/01/12 00:41:47;;;;;;;72.35;27.98;;;;;;;;;;5016835;28;20475;-54
2024/01/12 00:44:13;;;;;;;67.95;28.42;;;;;;;;;;5020512;28;20112;-55
2024/01/12 00:46:39;;;;;;;71.50;29.98;;;;;;;;;;5014416;28;20869;-56
2024/01/12 00:49:05;;;;;;;69.75;27.20;;;;;;;;;;5019336;28;20105;-53
2024/01/12 00:51:31;;;;;;;70.15;27.98;;;;;;;;;;5018500;28;20527;-53
2024/01/12 00:53:57;;;;;;;75.75;27.85;;;;;;;;;;5016587;28;20108;-53
2024/01/12 00:56:24;;;;;;;82.57;30.75;;;;;;;;;;5015696;28;20096;-54
2024/01/12 00:58:50;;;;;;;86.78;30.23;;;;;;;;;;5013597;28;20072;-55
2024/01/12 01:01:17;;;;;;;67.60;29.73;;;;;;;;;;5016420;28;20033;-56
2024/01/12 01:03:43;;;;;;;81.90;30.88;;;;;;;;;;5014312;28;20426;-54
2024/01/12 01:06:08;;;;;;;63.35;28.55;;;;;;;;;;5017413;28;20029;-54
2024/01/12 01:08:35;;;;;;;80.25;29.48;;;;;;;;;;5021071;28;20033;-52
2024/01/12 01:11:01;;;;;;;79.65;29.92;;;;;;;;;;5020786;28;20032;-56
2024/01/12 01:13:27;;;;;;;85.03;30.45;;;;;;;;;;5014512;28;20032;-52
2024/01/12 01:15:53;;;;;;;67.70;30.52;;;;;;;;;;5014684;28;20026;-55
2024/01/12 01:18:19;;;;;;;72.97;31.17;;;;;;;;;;5011934;28;20079;-53
2024/01/12 01:20:45;;;;;;;80.20;31.83;;;;;;;;;;5011219;28;20105;-55
2024/01/12 01:23:11;;;;;;;77.13;31.13;;;;;;;;;;5023873;28;20025;-56
2024/01/12 01:25:37;;;;;;;73.10;28.48;;;;;;;;;;5014717;28;20037;-56
2024/01/12 01:28:03;;;;;;;74.57;29.38;;;;;;;;;;5015062;28;20053;-54
2024/01/12 01:30:29;;;;;;;84.85;31.58;;;;;;;;;;5013180;28;20109;-55
2024/01/12 01:32:55;;;;;;;90.93;31.67;;;;;;;;;;5015408;28;20034;-55
2024/01/12 01:35:21;;;;;;;76.60;30.15;;;;;;;;;;5011057;28;20112;-57
2024/01/12 01:37:47;;;;;;;75.65;29.23;;;;;;;;;;5015692;28;20017;-57
2024/01/12 01:40:13;;;;;;;70.65;29.20;;;;;;;;;;5014102;28;20020;-56
2024/01/12 01:42:40;;;;;;;91.07;30.40;;;;;;;;;;5015158;28;20551;-54
2024/01/12 01:45:06;;;;;;;83.50;30.95;;;;;;;;;;5014226;28;20030;-56
2024/01/12 01:47:32;;;;;;;76.75;31.55;;;;;;;;;;5013588;28;20034;-54
2024/01/12 01:49:58;;;;;;;85.10;31.38;;;;;;;;;;5013599;28;20491;-54
2024/01/12 01:52:25;;;;;;;74.70;31.23;;;;;;;;;;5019463;28;20214;-55
2024/01/12 01:54:54;;;;;;;84.55;32.83;;;;;;;;;;5017539;28;20476;-50
2024/01/12 01:57:21;;;;;;;85.13;30.25;;;;;;;;;;5014340;28;20514;-57
2024/01/12 01:59:47;;;;;;;74.93;31.55;;;;;;;;;;5016902;28;20017;-57
2024/01/12 02:02:13;;;;;;;73.28;30.60;;;;;;;;;;5016414;28;20497;-58
2024/01/12 02:04:39;;;;;;;67.63;27.80;;;;;;;;;;5020037;28;20075;-58
2024/01/12 02:07:05;;;;;;;76.28;28.85;;;;;;;;;;5011506;28;20117;-57
2024/01/12 02:09:34;;;;;;;72.85;31.75;;;;;;;;;;5003251;28;20065;-57
2024/01/12 02:12:00;;;;;;;70.00;29.38;;;;;;;;;;5009665;28;20027;-54
2024/01/12 02:14:26;;;;;;;86.07;33.05;;;;;;;;;;5003473;28;20425;-55
2024/01/12 02:16:52;;;;;;;67.05;30.17;;;;;;;;;;5015913;28;20121;-54
2024/01/12 02:19:18;;;;;;;77.72;31.65;;;;;;;;;;5012974;28;20037;-54
2024/01/12 02:21:44;;;;;;;74.20;31.25;;;;;;;;;;5006870;28;20041;-53
2024/01/12 02:24:10;;;;;;;72.70;30.33;;;;;;;;;;5006878;28;20037;-52
2024/01/12 02:26:36;;;;;;;71.72;32.00;;;;;;;;;;5012809;28;20117;-56
2024/01/12 02:29:03;;;;;;;85.90;32.83;;;;;;;;;;5009233;28;20029;-56
2024/01/12 02:31:29;;;;;;;88.63;32.08;;;;;;;;;;5011266;28;20441;-56
2024/01/12 02:33:55;;;;;;;85.45;32.97;;;;;;;;;;5013778;28;20432;-55
2024/01/12 02:36:25;;;;;;;78.32;32.15;;;;;;;;;;5012785;28;20076;-57
2024/01/12 02:38:51;;;;;;;76.60;32.55;;;;;;;;;;5008348;28;20503;-56
2024/01/12 02:41:17;;;;;;;85.68;33.58;;;;;;;;;;5014463;28;20026;-57
2024/01/12 02:43:43;;;;;;;90.43;34.28;;;;;;;;;;5015762;28;20026;-57
2024/01/12 02:46:09;;;;;;;84.22;32.78;;;;;;;;;;5009487;28;20109;-56
2024/01/12 02:48:35;;;;;;;71.22;30.15;;;;;;;;;;5014334;28;20084;-53
2024/01/12 02:51:00;;;;;;;76.15;32.45;;;;;;;;;;5013802;28;20358;-55
2024/01/12 02:53:26;;;;;;;84.38;34.45;;;;;;;;;;5010595;28;20476;-55
2024/01/12 02:55:52;;;;;;;77.90;31.83;;;;;;;;;;5013508;28;20546;-56
2024/01/12 02:58:18;;;;;;;77.45;30.83;;;;;;;;;;5007641;28;20022;-54
2024/01/12 03:00:44;;;;;;;80.97;32.78;;;;;;;;;;5005253;28;20368;-57
2024/01/12 03:03:10;;;;;;;82.93;32.90;;;;;;;;;;5010622;28;20033;-57
2024/01/12 03:05:36;;;;;;;75.90;32.17;;;;;;;;;;5014235;28;20025;-57
2024/01/12 03:08:02;;;;;;;76.47;31.67;;;;;;;;;;5013431;28;20040;-56
2024/01/12 03:10:28;;;;;;;79.40;32.72;;;;;;;;;;5014750;28;20029;-55
2024/01/12 03:12:54;;;;;;;91.15;35.63;;;;;;;;;;5004958;28;20030;-58
2024/01/12 03:15:20;;;;;;;85.38;33.60;;;;;;;;;;5007622;28;20025;-55
2024/01/12 03:17:46;;;;;;;82.90;35.38;;;;;;;;;;5008157;28;20018;-53
2024/01/12 03:20:12;;;;;;;82.72;33.50;;;;;;;;;;5011756;28;20177;-55
2024/01/12 03:22:38;;;;;;;90.88;36.40;;;;;;;;;;5015615;28;20105;-55
2024/01/12 03:25:04;;;;;;;86.30;35.30;;;;;;;;;;5019772;28;20026;-57
2024/01/12 03:27:30;;;;;;;95.57;36.60;;;;;;;;;;5016007;28;20113;-55
2024/01/12 03:29:56;;;;;;;97.47;35.45;;;;;;;;;;5016459;28;20113;-53
2024/01/12 03:32:22;;;;;;;83.68;34.25;;;;;;;;;;5011453;28;20076;-53
2024/01/12 03:34:48;;;;;;;97.30;34.92;;;;;;;;;;5013453;28;20544;-55
2024/01/12 03:37:14;;;;;;;86.63;34.17;;;;;;;;;;5008461;28;20035;-54
2024/01/12 03:39:40;;;;;;;90.25;36.75;;;;;;;;;;5008088;28;20022;-57
2024/01/12 03:42:06;;;;;;;87.18;36.55;;;;;;;;;;5011267;28;20038;-54
2024/01/12 03:44:32;;;;;;;104.15;40.95;;;;;;;;;;5010654;28;20072;-55
2024/01/12 03:46:58;;;;;;;87.80;37.60;;;;;;;;;;5015156;28;20384;-55
2024/01/12 03:49:24;;;;;;;93.60;37.33;;;;;;;;;;5022732;28;20021;-54
2024/01/12 03:51:53;;;;;;;89.50;37.05;;;;;;;;;;5013710;28;20030;-52
2024/01/12 03:54:20;;;;;;;99.88;38.15;;;;;;;;;;5025008;28;20025;-54
2024/01/12 03:56:46;;;;;;;96.95;40.20;;;;;;;;;;5012078;28;20480;-52
2024/01/12 03:59:12;;;;;;;99.32;38.72;;;;;;;;;;5003306;28;20033;-55
2024/01/12 04:01:42;;;;;;;101.60;38.33;;;;;;;;;;5014485;28;20080;-56
2024/01/12 04:04:08;;;;;;;102.00;42.15;;;;;;;;;;5019405;28;20530;-56
2024/01/12 04:06:34;;;;;;;97.18;39.22;;;;;;;;;;5018799;28;20113;-55
2024/01/12 04:09:00;;;;;;;108.32;41.45;;;;;;;;;;5012624;28;20064;-52
2024/01/12 04:11:26;;;;;;;120.20;41.95;;;;;;;;;;5014334;28;20026;-53
2024/01/12 04:13:52;;;;;;;114.80;46.08;;;;;;;;;;5008779;28;20037;-53
2024/01/12 04:16:19;;;;;;;118.05;42.00;;;;;;;;;;5016280;28;20577;-53
2024/01/12 04:18:45;;;;;;;124.75;46.05;;;;;;;;;;5014250;28;20026;-52
2024/01/12 04:21:11;;;;;;;125.53;43.95;;;;;;;;;;5015332;28;20034;-57
2024/01/12 04:23:38;;;;;;;128.25;46.08;;;;;;;;;;5012238;28;20087;-56
2024/01/12 04:26:04;;;;;;;139.48;51.35;;;;;;;;;;5022293;28;20034;-55
2024/01/12 04:28:30;;;;;;;129.30;46.13;;;;;;;;;;5016687;28;20036;-56
2024/01/12 04:30:56;;;;;;;123.30;45.55;;;;;;;;;;5019190;28;20100;-58
2024/01/12 04:33:22;;;;;;;132.50;47.72;;;;;;;;;;5018000;28;20064;-56
2024/01/12 04:35:48;;;;;;;134.27;46.28;;;;;;;;;;5019653;28;20024;-53
2024/01/12 04:38:14;;;;;;;142.88;49.13;;;;;;;;;;5015015;28;20345;-53
2024/01/12 04:40:40;;;;;;;140.35;49.45;;;;;;;;;;5016457;28;20341;-55
2024/01/12 04:43:06;;;;;;;137.43;50.60;;;;;;;;;;5009934;28;20034;-56
2024/01/12 04:45:32;;;;;;;139.90;49.50;;;;;;;;;;5017629;28;20109;-58
2024/01/12 04:47:57;;;;;;;147.00;49.95;;;;;;;;;;5020058;28;20034;-58
2024/01/12 04:50:23;;;;;;;142.88;50.53;;;;;;;;;;5022416;28;20438;-55
2024/01/12 04:52:51;;;;;;;133.73;48.95;;;;;;;;;;5015400;28;20721;-56
2024/01/12 04:55:18;;;;;;;163.50;51.63;;;;;;;;;;5017769;28;20022;-57
2024/01/12 04:57:44;;;;;;;143.55;50.55;;;;;;;;;;5013386;28;20022;-53
2024/01/12 05:00:10;;;;;;;135.52;51.30;;;;;;;;;;5020102;28;20026;-54
2024/01/12 05:02:36;;;;;;;155.13;54.25;;;;;;;;;;5013556;28;20033;-54
2024/01/12 05:05:07;;;;;;;149.25;49.53;;;;;;;;;;5015569;28;20456;-56
2024/01/12 05:07:33;;;;;;;152.23;53.85;;;;;;;;;;5012901;28;20400;-56
2024/01/12 05:09:59;;;;;;;148.02;54.15;;;;;;;;;;5017242;28;20026;-58
2024/01/12 05:12:25;;;;;;;169.43;56.08;;;;;;;;;;5018219;28;20040;-57
2024/01/12 05:14:51;;;;;;;157.70;52.58;;;;;;;;;;5024322;28;20496;-59
2024/01/12 05:17:17;;;;;;;160.70;57.63;;;;;;;;;;5022157;28;20107;-58
2024/01/12 05:19:43;;;;;;;161.93;55.22;;;;;;;;;;5025953;28;20479;-55
2024/01/12 05:22:09;;;;;;;145.95;51.92;;;;;;;;;;5014511;28;20040;-54
2024/01/12 05:24:35;;;;;;;153.75;55.42;;;;;;;;;;5022041;28;20040;-55
2024/01/12 05:27:01;;;;;;;154.75;53.40;;;;;;;;;;5007324;28;20029;-57
2024/01/12 05:29:26;;;;;;;155.88;53.47;;;;;;;;;;5015467;28;20075;-57
2024/01/12 05:31:52;;;;;;;173.25;57.05;;;;;;;;;;5007803;28;20365;-52
2024/01/12 05:34:18;;;;;;;163.52;55.45;;;;;;;;;;5020266;28;20105;-54
2024/01/12 05:36:44;;;;;;;172.65;60.80;;;;;;;;;;5019490;28;20112;-58
2024/01/12 05:39:10;;;;;;;166.80;57.13;;;;;;;;;;5014911;28;20033;-59
2024/01/12 05:41:36;;;;;;;180.38;57.75;;;;;;;;;;5001853;28;20031;-58
2024/01/12 05:44:02;;;;;;;184.15;58.67;;;;;;;;;;5012566;28;20388;-58
2024/01/12 05:46:28;;;;;;;160.68;57.75;;;;;;;;;;5015240;28;20131;-55
2024/01/12 05:48:54;;;;;;;169.57;57.92;;;;;;;;;;5020002;28;20552;-57
2024/01/12 05:51:21;;;;;;;163.85;58.13;;;;;;;;;;5009170;28;20045;-55
2024/01/12 05:53:47;;;;;;;159.13;55.15;;;;;;;;;;5016041;28;20036;-56
2024/01/12 05:56:13;;;;;;;162.50;54.92;;;;;;;;;;5012562;28;20030;-55
2024/01/12 05:58:39;;;;;;;155.88;56.05;;;;;;;;;;5005018;28;20037;-58
2024/01/12 06:01:05;;;;;;;170.05;56.78;;;;;;;;;;5012050;28;20065;-59
2024/01/12 06:03:31;;;;;;;174.50;59.85;;;;;;;;;;5006752;28;20158;-58
2024/01/12 06:05:57;;;;;;;169.45;56.03;;;;;;;;;;5013206;28;20049;-50
2024/01/12 06:08:24;;;;;;;170.70;56.97;;;;;;;;;;5014707;28;20571;-52
2024/01/12 06:10:50;;;;;;;177.95;56.85;;;;;;;;;;5009608;28;20059;-54
2024/01/12 06:13:17;;;;;;;176.27;59.03;;;;;;;;;;5008706;28;20036;-52
2024/01/12 06:15:43;;;;;;;186.23;57.25;;;;;;;;;;5013073;28;20105;-55
2024/01/12 06:18:09;;;;;;;192.85;56.90;;;;;;;;;;5012949;28;20065;-57
2024/01/12 06:20:35;;;;;;;180.38;53.30;;;;;;;;;;5006153;28;20472;-57
2024/01/12 06:23:01;;;;;;;179.27;57.72;;;;;;;;;;5013601;28;20542;-56
2024/01/12 06:25:29;;;;;;;191.43;61.42;;;;;;;;;;5011305;28;20029;-55
2024/01/12 06:27:55;;;;;;;188.93;57.25;;;;;;;;;;5009865;28;20408;-57
2024/01/12 06:30:21;;;;;;;195.13;58.42;;;;;;;;;;5016420;28;20037;-58
2024/01/12 06:32:47;;;;;;;186.18;57.50;;;;;;;;;;5016321;28;20527;-53
2024/01/12 06:35:13;;;;;;;187.20;56.33;;;;;;;;;;5013519;28;20034;-51
2024/01/12 06:37:39;;;;;;;188.98;56.67;;;;;;;;;;5017434;28;20109;-56
2024/01/12 06:40:06;;;;;;;187.20;57.67;;;;;;;;;;5009930;28;20065;-54
2024/01/12 06:42:32;;;;;;;185.65;55.95;;;;;;;;;;5016986;28;20033;-56
2024/01/12 06:44:59;;;;;;;195.93;56.05;;;;;;;;;;5015842;28;20096;-55
2024/01/12 06:47:25;;;;;;;184.07;57.63;;;;;;;;;;5018075;28;20030;-50
2024/01/12 06:49:51;;;;;;;194.77;57.58;;;;;;;;;;5025039;28;20072;-56
2024/01/12 06:52:17;;;;;;;183.82;52.67;;;;;;;;;;5016410;28;20062;-56
2024/01/12 06:54:43;;;;;;;189.13;55.25;;;;;;;;;;5012878;28;20125;-57
2024/01/12 06:57:09;;;;;;;206.27;56.95;;;;;;;;;;5021512;28;20037;-57
2024/01/12 06:59:35;;;;;;;198.77;57.92;;;;;;;;;;5009713;28;20025;-56
2024/01/12 07:02:01;;;;;;;201.27;60.13;;;;;;;;;;5019895;28;20033;-54
2024/01/12 07:04:27;;;;;;;208.27;56.42;;;;;;;;;;5019058;28;20419;-56
2024/01/12 07:06:53;;;;;;;209.95;59.55;;;;;;;;;;5016863;28;20057;-57
2024/01/12 07:09:19;;;;;;;203.70;55.28;;;;;;;;;;5016937;28;20495;-60
2024/01/12 07:11:45;;;;;;;197.18;60.10;;;;;;;;;;5015908;28;20045;-57
2024/01/12 07:14:14;;;;;;;200.85;56.55;;;;;;;;;;5022751;28;20029;-57
2024/01/12 07:16:40;;;;;;;197.75;55.55;;;;;;;;;;5015828;28;20071;-56
2024/01/12 07:19:06;;;;;;;198.35;54.67;;;;;;;;;;5021184;28;20033;-57
2024/01/12 07:21:32;;;;;;;214.57;55.50;;;;;;;;;;5015482;28;20026;-53
2024/01/12 07:23:58;;;;;;;208.77;57.30;;;;;;;;;;5012601;28;20028;-55
2024/01/12 07:26:24;;;;;;;188.52;54.53;;;;;;;;;;5020550;28;20061;-56
2024/01/12 07:28:51;;;;;;;194.95;56.00;;;;;;;;;;5018367;28;20049;-57
2024/01/12 07:31:17;;;;;;;222.43;56.85;;;;;;;;;;5019269;28;20022;-58
2024/01/12 07:33:43;;;;;;;192.88;55.67;;;;;;;;;;5014663;28;20044;-58
2024/01/12 07:36:09;;;;;;;198.02;56.17;;;;;;;;;;5014502;28;20076;-52
2024/01/12 07:38:35;;;;;;;207.30;55.15;;;;;;;;;;5013060;28;20036;-57
2024/01/12 07:41:01;;;;;;;201.30;54.55;;;;;;;;;;5016510;28;20085;-58
2024/01/12 07:43:27;;;;;;;230.98;56.45;;;;;;;;;;5020745;28;20408;-58
2024/01/12 07:45:53;;;;;;;219.48;56.30;;;;;;;;;;5020968;28;20022;-56
2024/01/12 07:48:19;;;;;;;204.48;52.38;;;;;;;;;;5019553;28;20030;-56
2024/01/12 07:50:45;;;;;;;216.35;56.15;;;;;;;;;;5025752;28;20044;-57
2024/01/12 07:53:11;;;;;;;202.82;56.13;;;;;;;;;;5016105;28;20033;-57
2024/01/12 07:55:38;;;;;;;207.75;55.00;;;;;;;;;;5017006;28;20183;-57
2024/01/12 07:58:04;;;;;;;215.27;54.78;;;;;;;;;;5017885;28;20028;-56
2024/01/12 08:00:30;;;;;;;213.50;54.67;;;;;;;;;;5019930;28;20021;-57
2024/01/12 08:02:56;;;;;;;213.75;54.35;;;;;;;;;;5018783;28;20029;-54
2024/01/12 08:05:22;;;;;;;211.18;55.63;;;;;;;;;;5016512;28;20417;-58
2024/01/12 08:07:51;;;;;;;208.57;54.95;;;;;;;;;;5006464;28;20029;-55
2024/01/12 08:10:17;;;;;;;200.13;57.60;;;;;;;;;;5019692;28;20029;-55
2024/01/12 08:12:44;;;;;;;220.60;55.75;;;;;;;;;;5012663;28;20477;-55
2024/01/12 08:15:10;;;;;;;235.98;55.85;;;;;;;;;;5019503;28;20125;-54
2024/01/12 08:17:39;;;;;;;233.70;58.63;;;;;;;;;;5012868;28;20032;-56
2024/01/12 08:20:06;;;;;;;248.73;59.13;;;;;;;;;;5021635;28;20033;-57
2024/01/12 08:22:32;;;;;;;220.68;55.80;;;;;;;;;;5015663;28;20472;-52
2024/01/12 08:24:58;;;;;;;234.05;56.63;;;;;;;;;;5015979;28;20030;-55
2024/01/12 08:27:24;;;;;;;230.60;59.75;;;;;;;;;;5008198;28;20096;-57
2024/01/12 08:29:50;;;;;;;218.77;58.53;;;;;;;;;;5002475;28;20021;-54
2024/01/12 08:32:16;;;;;;;217.77;55.30;;;;;;;;;;5002247;28;20026;-54
2024/01/12 08:34:42;;;;;;;210.45;53.55;;;;;;;;;;5007501;28;20590;-53
2024/01/12 08:37:08;;;;;;;206.98;55.97;;;;;;;;;;5017676;28;20447;-59
2024/01/12 08:39:34;;;;;;;199.88;50.35;;;;;;;;;;5010554;28;20034;-54
2024/01/12 08:42:00;;;;;;;196.00;51.00;;;;;;;;;;5008695;28;20152;-52
2024/01/12 08:44:26;;;;;;;187.80;48.58;;;;;;;;;;5006226;28;20029;-54
2024/01/12 08:46:53;;;;;;;180.75;43.25;;;;;;;;;;5004366;28;20408;-56
2024/01/12 08:49:19;;;;;;;149.43;40.95;;;;;;;;;;5008539;28;20076;-54
2024/01/12 08:51:45;;;;;;;181.85;43.78;;;;;;;;;;5014007;28;20392;-53
2024/01/12 08:54:11;;;;;;;148.90;41.03;;;;;;;;;;5018202;28;20143;-54
2024/01/12 08:56:37;;;;;;;170.40;43.65;;;;;;;;;;5011207;28;20613;-53
2024/01/12 08:59:03;;;;;;;204.60;46.00;;;;;;;;;;5011523;28;20125;-55
2024/01/12 09:01:29;;;;;;;183.00;46.40;;;;;;;;;;5017123;28;20020;-53
2024/01/12 09:03:55;;;;;;;178.15;41.90;;;;;;;;;;5014202;28;20413;-55
2024/01/12 09:06:23;;;;;;;163.15;42.85;;;;;;;;;;5011910;28;20079;-54
2024/01/12 09:08:49;;;;;;;138.15;39.33;;;;;;;;;;5002524;28;20014;-53
2024/01/12 09:11:15;;;;;;;130.95;35.13;;;;;;;;;;5014228;28;20033;-53
2024/01/12 09:13:41;;;;;;;141.70;37.70;;;;;;;;;;5017679;28;20034;-52
2024/01/12 09:16:10;;;;;;;118.97;35.28;;;;;;;;;;5013831;28;20431;-53
2024/01/12 09:18:36;;;;;;;111.40;30.98;;;;;;;;;;5012458;28;20046;-58
2024/01/12 09:21:02;;;;;;;118.90;31.73;;;;;;;;;;5015625;28;20124;-54
2024/01/12 09:23:28;;;;;;;121.25;33.47;;;;;;;;;;5015466;28;20345;-54
2024/01/12 09:25:54;;;;;;;127.13;35.63;;;;;;;;;;5013506;28;20025;-55
2024/01/12 09:28:21;;;;;;;129.13;34.63;;;;;;;;;;5005566;28;20029;-55
2024/01/12 09:30:47;;;;;;;122.93;36.45;;;;;;;;;;5006213;28;20037;-55
2024/01/12 09:33:13;;;;;;;132.23;34.22;;;;;;;;;;5016425;28;20063;-54
2024/01/12 09:35:39;;;;;;;120.25;32.78;;;;;;;;;;5021405;28;20349;-55
2024/01/12 09:38:05;;;;;;;128.98;37.08;;;;;;;;;;5011278;28;20088;-56
2024/01/12 09:40:31;;;;;;;115.13;32.88;;;;;;;;;;5018729;28;20361;-52
2024/01/12 09:43:00;;;;;;;124.15;35.90;;;;;;;;;;5015109;28;20026;-54
2024/01/12 09:45:26;;;;;;;121.60;34.20;;;;;;;;;;5013287;28;20396;-53
2024/01/12 09:47:52;;;;;;;125.95;35.72;;;;;;;;;;5016937;28;20407;-56
2024/01/12 09:50:21;;;;;;;139.40;40.30;;;;;;;;;;5017167;28;20037;-51
2024/01/12 09:52:48;;;;;;;125.43;36.63;;;;;;;;;;5019345;28;20699;-55
2024/01/12 09:55:14;;;;;;;137.65;38.55;;;;;;;;;;5027153;28;20022;-55
2024/01/12 09:57:40;;;;;;;139.05;38.60;;;;;;;;;;5018336;28;20022;-55
2024/01/12 10:00:08;;;;;;;115.35;32.35;;;;;;;;;;5024359;28;20596;-53
2024/01/12 10:02:34;;;;;;;104.30;30.13;;;;;;;;;;5009801;28;20053;-52
2024/01/12 10:05:00;;;;;;;104.15;28.42;;;;;;;;;;5020551;28;21598;-55
2024/01/12 10:07:26;;;;;;;111.68;31.55;;;;;;;;;;5012598;28;20037;-55
2024/01/12 10:09:53;;;;;;;120.70;32.53;;;;;;;;;;5014686;28;21703;-55
2024/01/12 10:12:19;;;;;;;107.20;31.67;;;;;;;;;;5014617;28;20104;-55
2024/01/12 10:14:45;;;;;;;97.43;29.00;;;;;;;;;;5018201;28;20491;-53
2024/01/12 10:17:13;;;;;;;99.63;28.63;;;;;;;;;;5014277;28;20372;-53
2024/01/12 10:19:41;;;;;;;99.65;29.40;;;;;;;;;;5015177;28;20488;-53
2024/01/12 10:22:12;;;;;;;96.72;27.67;;;;;;;;;;5015377;28;20034;-58
2024/01/12 10:24:38;;;;;;;93.45;29.70;;;;;;;;;;5014491;28;20535;-56
2024/01/12 10:27:05;;;;;;;85.78;25.80;;;;;;;;;;5014024;28;20065;-53
2024/01/12 10:29:31;;;;;;;93.32;28.45;;;;;;;;;;5020129;28;20030;-53
2024/01/12 10:31:57;;;;;;;95.35;27.60;;;;;;;;;;5015562;28;20575;-53
2024/01/12 10:34:24;;;;;;;92.57;26.75;;;;;;;;;;5019474;28;20025;-56
2024/01/12 10:36:51;;;;;;;93.75;28.17;;;;;;;;;;5010593;28;20034;-56
2024/01/12 10:39:19;;;;;;;96.72;30.25;;;;;;;;;;5017237;28;20026;-53
2024/01/12 10:41:46;;;;;;;87.22;28.88;;;;;;;;;;5014307;28;20190;-53
2024/01/12 10:44:15;;;;;;;94.32;27.77;;;;;;;;;;5010413;28;20044;-57
2024/01/12 10:46:40;;;;;;;101.30;29.83;;;;;;;;;;5009656;28;20029;-57
2024/01/12 10:49:07;;;;;;;88.18;26.88;;;;;;;;;;5010728;28;20034;-55
2024/01/12 10:51:37;;;;;;;94.43;28.70;;;;;;;;;;5015632;28;20040;-59
2024/01/12 10:54:06;;;;;;;99.47;31.83;;;;;;;;;;5013661;28;20487;-55
2024/01/12 10:56:35;;;;;;;98.15;29.67;;;;;;;;;;5020111;28;20037;-54
2024/01/12 10:59:01;;;;;;;99.60;28.30;;;;;;;;;;5015145;28;20066;-57
2024/01/12 11:01:27;;;;;;;91.93;28.13;;;;;;;;;;5015728;28;20033;-55
2024/01/12 11:03:54;;;;;;;99.38;27.58;;;;;;;;;;5012899;28;20100;-55
2024/01/12 11:06:20;;;;;;;100.88;29.48;;;;;;;;;;5007198;28;20409;-53
2024/01/12 11:08:50;;;;;;;106.63;31.83;;;;;;;;;;5007090;28;20034;-54
2024/01/12 11:11:18;;;;;;;110.18;34.53;;;;;;;;;;5013088;28;20034;-54
2024/01/12 11:13:45;;;;;;;111.65;32.10;;;;;;;;;;5013495;28;20408;-54
2024/01/12 11:16:11;;;;;;;119.97;33.95;;;;;;;;;;5024900;28;20022;-55
2024/01/12 11:18:37;;;;;;;108.72;33.75;;;;;;;;;;5014687;28;20080;-55
2024/01/12 11:21:03;;;;;;;106.53;32.35;;;;;;;;;;5023714;28;20116;-54
2024/01/12 11:23:29;;;;;;;109.18;31.58;;;;;;;;;;5013865;28;20163;-52
2024/01/12 11:25:56;;;;;;;107.10;31.38;;;;;;;;;;5014840;28;20048;-52
2024/01/12 11:28:22;;;;;;;105.57;31.67;;;;;;;;;;5014229;28;20033;-54
2024/01/12 11:30:50;;;;;;;107.63;30.52;;;;;;;;;;5019635;28;20112;-53
2024/01/12 11:33:19;;;;;;;114.78;33.42;;;;;;;;;;5015476;28;20040;-53
2024/01/12 11:35:51;;;;;;;113.15;32.83;;;;;;;;;;5017282;28;20030;-53
2024/01/12 11:38:18;;;;;;;108.28;32.90;;;;;;;;;;5013424;28;20032;-52
2024/01/12 11:40:48;;;;;;;115.25;32.72;;;;;;;;;;5006282;28;20029;-54
2024/01/12 11:43:17;;;;;;;130.73;35.97;;;;;;;;;;5012084;28;20018;-54
2024/01/12 11:45:44;;;;;;;117.47;33.95;;;;;;;;;;5019123;28;20376;-53
2024/01/12 11:48:13;;;;;;;120.28;33.47;;;;;;;;;;5016496;28;20131;-55
2024/01/12 11:50:39;;;;;;;135.40;36.45;;;;;;;;;;5013439;28;20061;-55
2024/01/12 11:53:08;;;;;;;126.78;36.47;;;;;;;;;;5019565;28;20116;-54
2024/01/12 11:55:37;;;;;;;112.22;32.35;;;;;;;;;;5014788;28;20480;-55
2024/01/12 11:58:03;;;;;;;121.65;35.78;;;;;;;;;;5016327;28;20014;-51
2024/01/12 12:00:30;;;;;;;128.75;36.00;;;;;;;;;;5016829;28;20022;-53
2024/01/12 12:02:56;;;;;;;136.70;34.53;;;;;;;;;;5015304;28;20057;-52
2024/01/12 12:05:22;;;;;;;118.78;35.83;;;;;;;;;;5014480;28;20447;-54
2024/01/12 12:07:48;;;;;;;116.18;33.33;;;;;;;;;;5011939;28;21042;-51
2024/01/12 12:10:14;;;;;;;113.30;32.63;;;;;;;;;;5012652;28;20104;-54
2024/01/12 12:12:40;;;;;;;104.80;29.73;;;;;;;;;;5011357;28;20026;-54
2024/01/12 12:15:06;;;;;;;118.60;34.75;;;;;;;;;;5009123;28;20488;-54
2024/01/12 12:17:33;;;;;;;110.15;31.70;;;;;;;;;;5011963;28;20038;-56
2024/01/12 12:19:59;;;;;;;106.43;32.35;;;;;;;;;;5008641;28;20018;-53
2024/01/12 12:22:25;;;;;;;103.88;32.92;;;;;;;;;;5013883;28;20037;-55
2024/01/12 12:24:52;;;;;;;103.47;30.27;;;;;;;;;;5008353;28;20048;-52
2024/01/12 12:27:18;;;;;;;106.28;31.33;;;;;;;;;;5022411;28;20052;-56
2024/01/12 12:29:45;;;;;;;95.30;30.40;;;;;;;;;;5007356;28;20531;-53
2024/01/12 12:32:12;;;;;;;97.47;31.80;;;;;;;;;;5021410;28;20048;-53
2024/01/12 12:34:39;;;;;;;113.28;31.08;;;;;;;;;;5008086;28;20093;-55
2024/01/12 12:37:09;;;;;;;107.07;30.83;;;;;;;;;;5021748;28;20030;-53
2024/01/12 12:39:36;;;;;;;97.63;30.77;;;;;;;;;;5011423;28;20026;-53
2024/01/12 12:42:02;;;;;;;107.18;33.03;;;;;;;;;;5019035;28;20113;-51
2024/01/12 12:44:28;;;;;;;99.35;29.45;;;;;;;;;;5007346;28;20041;-55
2024/01/12 12:46:54;;;;;;;103.93;31.40;;;;;;;;;;5011979;28;20026;-53
2024/01/12 12:49:20;;;;;;;110.18;30.27;;;;;;;;;;5012206;28;20091;-54
2024/01/12 12:51:46;;;;;;;89.03;28.13;;;;;;;;;;5018548;28;20038;-56
2024/01/12 12:54:12;;;;;;;100.97;30.63;;;;;;;;;;5004410;28;20036;-52
2024/01/12 12:56:39;;;;;;;88.82;26.05;;;;;;;;;;5013513;28;20014;-54
2024/01/12 12:59:06;;;;;;;107.65;30.73;;;;;;;;;;5011472;28;20068;-56
2024/01/12 13:01:32;;;;;;;107.90;29.25;;;;;;;;;;5015933;28;20041;-56
2024/01/12 13:03:59;;;;;;;93.45;26.98;;;;;;;;;;5017019;28;20038;-54
2024/01/12 13:06:25;;;;;;;90.15;26.90;;;;;;;;;;5017070;28;20037;-54
2024/01/12 13:08:51;;;;;;;101.38;28.95;;;;;;;;;;5015086;28;20041;-50
2024/01/12 13:11:17;;;;;;;92.85;26.15;;;;;;;;;;5016887;28;20029;-55
2024/01/12 13:13:43;;;;;;;90.32;26.65;;;;;;;;;;5006740;28;20171;-53
2024/01/12 13:16:09;;;;;;;100.45;28.58;;;;;;;;;;5012691;28;20495;-53
2024/01/12 13:18:35;;;;;;;98.90;28.10;;;;;;;;;;5004488;28;20488;-51
2024/01/12 13:21:01;;;;;;;91.35;28.38;;;;;;;;;;5006818;28;20030;-54
2024/01/12 13:23:27;;;;;;;88.43;26.33;;;;;;;;;;5004716;28;20026;-52
2024/01/12 13:25:53;;;;;;;95.13;29.58;;;;;;;;;;5009237;28;20034;-57
2024/01/12 13:28:19;;;;;;;91.88;28.30;;;;;;;;;;5010650;28;20104;-56
2024/01/12 13:30:45;;;;;;;91.75;27.45;;;;;;;;;;5005821;28;20106;-55
2024/01/12 13:33:11;;;;;;;111.00;31.45;;;;;;;;;;5005891;28;20073;-54
2024/01/12 13:35:39;;;;;;;101.47;29.75;;;;;;;;;;5003441;28;20042;-56
2024/01/12 13:38:05;;;;;;;126.40;32.75;;;;;;;;;;5004382;28;20034;-51
2024/01/12 13:40:31;;;;;;;115.95;33.10;;;;;;;;;;5013460;28;20073;-54
2024/01/12 13:42:57;;;;;;;112.88;31.30;;;;;;;;;;5016354;28;20033;-52
2024/01/12 13:45:23;;;;;;;133.93;35.35;;;;;;;;;;5010865;28;20084;-55
2024/01/12 13:47:49;;;;;;;132.32;33.03;;;;;;;;;;5001402;28;20033;-53
2024/01/12 13:50:15;;;;;;;129.82;35.50;;;;;;;;;;5003119;28;21396;-53
2024/01/12 13:52:40;;;;;;;114.95;33.58;;;;;;;;;;5007355;28;20044;-55
2024/01/12 13:55:07;;;;;;;122.68;32.97;;;;;;;;;;5012101;28;20024;-55
2024/01/12 13:57:33;;;;;;;124.80;32.30;;;;;;;;;;5010914;28;20025;-57
2024/01/12 14:00:00;;;;;;;119.63;32.72;;;;;;;;;;5008581;28;20494;-54
2024/01/12 14:02:26;;;;;;;109.38;31.00;;;;;;;;;;5011535;28;20037;-55